Pinson, Alabama
Current Conditions -  °F | °C
As of 12:53 AM on Saturday 29 Nov 2014 (Local Time) from KBHM Reporting Station
Clear Clear  
Wind Chill: 41°   Ceiling: Unl
Heat Index: 44°   Visibility: 10mi
Dew Point: 20°   Wind: 6mph
Humidity: 38%   Direction: 190°S
Pressure: 30.23"   Gusts: NA
Location:  33.69°N, 86.68°W
Report Text: KBHM 290653Z 19005KT 10SM CLR 07/M07 A3023 RMK AO2 SLP237 T00671067
Loading
Personal Weather Stations






























Interactive Weather Map New forecast layout! Learn more

10-Day Weather Forecast

Advertisements
Track Severe Weather on mobile